Portada
METAR-TAF:

METAR-TAF

Aeropuertos :

Gibraltar, Gibraltar

Aeropuerto de Gibraltar

latitud: 36-09N, longitud: 005-21W, altitud: 5 m

Observación

El informe se hizo hace 20 minutos, a las 17:50 UTC
Viento 10 kt del este
Temperatura 14°C
Humedad 63%
Presión 1008 hPa
Visibilidad 10 km o más

METAR: LXGB 241750Z AUTO 09010KT 9999 // FEW029/// BKN036/// BKN043/// 14/07 Q1008

Hora: 19:10 (18:10 UTC)

Pronóstico

El informe se hizo hace 1 hora y 52 minutos, a las 16:18 UTC
Pronóstico válido del 24 a las 18 UTC al 24 a las 22 UTC
Viento 10 kt del este
Visibilidad 10 km o más
Cielo nuboso a una altura de 3000 ft

TAF: LXGB 241618Z 2418/2422 09010KT 9999 BKN030

Observaciones y pronósticos meteorológicos de más de 4000 aeropuertos (mensajes METAR y TAF).

Los puntos amarillos y rojos representan las estaciones disponibles.

Ponga el ratón en el punto deseado para ver el nombre de la estación.

Haga clic para ver las observaciones y los pronósticos meteorológicos.

Para cambiar el mapa : haga clic en los botones verdes con una cruz de color negro para hacer un zoom, en el botón verde con un guión para alejar o en las flechas verdes para mapas adyacentes.


METAR-TAF: